createdAt,value
2018-03-22T00:00:08.287Z,96106
2018-03-22T00:02:36.526Z,96109
2018-03-22T00:05:04.672Z,96109
2018-03-22T00:07:32.871Z,96107
2018-03-22T00:10:00.989Z,96109
2018-03-22T00:12:29.581Z,96105
2018-03-22T00:14:57.701Z,96096
2018-03-22T00:17:25.846Z,96098
2018-03-22T00:19:54.042Z,96094
2018-03-22T00:22:38.997Z,96098
2018-03-22T00:25:07.272Z,96098
2018-03-22T00:27:35.485Z,96098
2018-03-22T00:30:03.726Z,96094
2018-03-22T00:32:31.918Z,96091
2018-03-22T00:35:00.067Z,96092
2018-03-22T00:37:28.190Z,96078
2018-03-22T00:39:56.396Z,96083
2018-03-22T00:42:24.502Z,96069
2018-03-22T00:44:52.622Z,96063
2018-03-22T00:47:20.760Z,96059
2018-03-22T00:49:48.876Z,96066
2018-03-22T00:52:17.875Z,96057
2018-03-22T00:54:46.106Z,96044
2018-03-22T00:57:14.224Z,96051
2018-03-22T00:59:42.361Z,96048
2018-03-22T01:02:10.839Z,96041
2018-03-22T01:04:39.553Z,96035
2018-03-22T01:07:07.688Z,96037
2018-03-22T01:09:36.061Z,96043
2018-03-22T01:12:04.277Z,96031
2018-03-22T01:14:32.981Z,96028
2018-03-22T01:17:01.109Z,96029
2018-03-22T01:19:29.283Z,96014
2018-03-22T01:21:57.421Z,96012
2018-03-22T01:24:25.535Z,96017
2018-03-22T01:26:53.667Z,96014
2018-03-22T01:29:21.780Z,96015
2018-03-22T01:31:49.934Z,96013
2018-03-22T01:34:18.087Z,96012
2018-03-22T01:36:46.387Z,95995
2018-03-22T01:39:14.671Z,96001
2018-03-22T01:41:42.894Z,96000
2018-03-22T01:44:11.050Z,95996
2018-03-22T01:46:39.156Z,95999
2018-03-22T01:49:07.284Z,95992
2018-03-22T01:51:35.388Z,95996
2018-03-22T01:54:04.124Z,95997
2018-03-22T01:56:32.366Z,95995
2018-03-22T01:59:00.614Z,95993
2018-03-22T02:01:29.504Z,95991
2018-03-22T02:03:57.652Z,95985
2018-03-22T02:06:25.774Z,95998
2018-03-22T02:08:53.942Z,95982
2018-03-22T02:11:22.048Z,95974
2018-03-22T02:13:50.155Z,95973
2018-03-22T02:16:18.324Z,95964
2018-03-22T02:18:46.565Z,95963
2018-03-22T02:21:14.659Z,95959
2018-03-22T02:23:42.794Z,95952
2018-03-22T02:26:10.907Z,95950
2018-03-22T02:28:39.017Z,95957
2018-03-22T02:31:07.201Z,95949
2018-03-22T02:33:35.339Z,95953
2018-03-22T02:36:03.463Z,95943
2018-03-22T02:38:31.656Z,95958
2018-03-22T02:40:59.887Z,95946
2018-03-22T02:43:28.126Z,95946
2018-03-22T02:45:56.408Z,95947
2018-03-22T02:48:24.588Z,95946
2018-03-22T02:50:52.809Z,95942
2018-03-22T02:53:20.995Z,95941
2018-03-22T02:55:49.130Z,95938
2018-03-22T02:58:17.264Z,95936
2018-03-22T03:00:45.928Z,95931
2018-03-22T03:03:14.042Z,95932
2018-03-22T03:05:42.272Z,95924
2018-03-22T03:08:10.451Z,95916
2018-03-22T03:10:38.576Z,95919
2018-03-22T03:13:07.532Z,95916
2018-03-22T03:15:35.670Z,95923
2018-03-22T03:18:04.253Z,95919
2018-03-22T03:20:32.373Z,95919
2018-03-22T03:23:00.530Z,95919
2018-03-22T03:25:28.672Z,95916
2018-03-22T03:27:56.832Z,95920
2018-03-22T03:30:25.024Z,95919
2018-03-22T03:32:53.140Z,95922
2018-03-22T03:35:21.262Z,95917
2018-03-22T03:37:49.376Z,95918
2018-03-22T03:40:17.489Z,95920
2018-03-22T03:42:45.623Z,95912
2018-03-22T03:45:13.746Z,95915
2018-03-22T03:47:41.861Z,95907
2018-03-22T03:50:09.984Z,95912
2018-03-22T03:52:38.237Z,95907
2018-03-22T03:55:06.433Z,95904
2018-03-22T03:57:34.555Z,95899
2018-03-22T04:00:02.711Z,95887
2018-03-22T04:02:30.831Z,95887
2018-03-22T04:04:58.955Z,95886
2018-03-22T04:07:27.197Z,95884
2018-03-22T04:09:55.317Z,95875
2018-03-22T04:12:23.429Z,95882
2018-03-22T04:14:52.345Z,95866
2018-03-22T04:17:20.469Z,95861
2018-03-22T04:19:48.605Z,95861
2018-03-22T04:22:16.865Z,95853
2018-03-22T04:24:44.989Z,95852
2018-03-22T04:27:13.934Z,95849
2018-03-22T04:29:42.051Z,95848
2018-03-22T04:32:10.195Z,95846
2018-03-22T04:34:38.353Z,95844
2018-03-22T04:37:06.479Z,95843
2018-03-22T04:39:34.977Z,95828
2018-03-22T04:42:03.124Z,95833
2018-03-22T04:44:31.227Z,95836
2018-03-22T04:46:59.368Z,95841
2018-03-22T04:49:27.469Z,95841
2018-03-22T04:51:55.631Z,95838
2018-03-22T04:54:23.768Z,95823
2018-03-22T04:56:51.896Z,95825
2018-03-22T04:59:20.080Z,95824
2018-03-22T05:01:48.187Z,95830
2018-03-22T05:04:16.442Z,95823
2018-03-22T05:06:48.776Z,95838
2018-03-22T05:09:17.680Z,95822
2018-03-22T05:11:45.811Z,95822
2018-03-22T05:14:13.996Z,95816
2018-03-22T05:16:42.124Z,95811
2018-03-22T05:19:10.252Z,95819
2018-03-22T05:21:38.488Z,95811
2018-03-22T05:24:07.435Z,95817
2018-03-22T05:26:35.550Z,95801
2018-03-22T05:29:04.358Z,95802
2018-03-22T05:31:44.446Z,95800
2018-03-22T05:34:14.215Z,95787
2018-03-22T05:36:42.356Z,95781
2018-03-22T05:39:10.444Z,95782
2018-03-22T05:44:34.384Z,95787
2018-03-22T05:47:02.479Z,95791
2018-03-22T05:49:30.617Z,95789
2018-03-22T05:51:58.778Z,95777
2018-03-22T05:54:26.923Z,95772
2018-03-22T05:56:55.087Z,95768
2018-03-22T05:59:23.193Z,95769
2018-03-22T06:01:51.336Z,95765
2018-03-22T06:04:19.439Z,95780
2018-03-22T06:06:47.560Z,95778
2018-03-22T06:09:15.687Z,95769
2018-03-22T06:11:44.325Z,95775
2018-03-22T06:14:13.160Z,95777
2018-03-22T06:16:41.439Z,95770
2018-03-22T06:19:09.552Z,95774
2018-03-22T06:21:37.658Z,95775
2018-03-22T06:24:05.786Z,95767
2018-03-22T06:26:33.956Z,95771
2018-03-22T06:29:02.129Z,95765
2018-03-22T06:31:30.271Z,95756
2018-03-22T06:33:58.421Z,95757
2018-03-22T06:36:26.568Z,95749
2018-03-22T06:38:54.687Z,95756
2018-03-22T06:41:22.913Z,95759
2018-03-22T06:43:51.026Z,95758
2018-03-22T06:46:19.253Z,95766
2018-03-22T06:48:48.149Z,95765
2018-03-22T06:51:16.282Z,95769
2018-03-22T06:53:44.480Z,95756
2018-03-22T06:56:12.607Z,95763
2018-03-22T06:58:40.738Z,95758
2018-03-22T07:01:08.849Z,95753
2018-03-22T07:03:37.092Z,95755
2018-03-22T07:06:05.261Z,95745
2018-03-22T07:08:33.391Z,95747
2018-03-22T07:11:01.548Z,95745
2018-03-22T07:13:29.688Z,95746
2018-03-22T07:15:57.822Z,95746
2018-03-22T07:18:25.917Z,95744
2018-03-22T07:20:54.049Z,95732
2018-03-22T07:23:26.315Z,95727
2018-03-22T07:25:55.413Z,95725
2018-03-22T07:28:35.592Z,95722
2018-03-22T07:31:04.246Z,95720
2018-03-22T07:33:32.394Z,95707
2018-03-22T07:36:00.639Z,95699
2018-03-22T07:38:28.747Z,95705
2018-03-22T07:40:56.899Z,95714
2018-03-22T07:43:34.892Z,95703
2018-03-22T07:46:03.025Z,95708
2018-03-22T07:48:31.130Z,95700
2018-03-22T07:50:59.240Z,95703
2018-03-22T07:53:27.346Z,95705
2018-03-22T07:55:55.496Z,95698
2018-03-22T07:58:23.742Z,95700
2018-03-22T08:00:51.980Z,95698
2018-03-22T08:03:20.574Z,95693
2018-03-22T08:05:49.529Z,95688
2018-03-22T08:08:17.617Z,95679
2018-03-22T08:10:45.738Z,95685
2018-03-22T08:13:13.838Z,95681
2018-03-22T08:15:42.510Z,95679
2018-03-22T08:18:10.676Z,95682
2018-03-22T08:20:38.954Z,95682
2018-03-22T08:23:07.185Z,95677
2018-03-22T08:25:36.094Z,95673
2018-03-22T08:28:04.187Z,95674
2018-03-22T08:30:32.287Z,95671
2018-03-22T08:33:00.428Z,95669
2018-03-22T08:35:28.527Z,95662
2018-03-22T08:37:56.683Z,95660
2018-03-22T08:40:24.825Z,95660
2018-03-22T08:42:52.945Z,95656
2018-03-22T08:45:21.039Z,95657
2018-03-22T08:47:49.835Z,95652
2018-03-22T08:50:18.238Z,95647
2018-03-22T08:52:46.321Z,95640
2018-03-22T08:55:14.456Z,95643
2018-03-22T08:57:42.574Z,95645
2018-03-22T09:00:10.702Z,95633
2018-03-22T09:02:38.788Z,95636
2018-03-22T09:05:07.702Z,95647
2018-03-22T09:07:35.802Z,95637
2018-03-22T09:10:03.996Z,95632
2018-03-22T09:12:32.107Z,95638
2018-03-22T09:15:00.214Z,95620
2018-03-22T09:17:28.330Z,95620
2018-03-22T09:19:56.428Z,95625
2018-03-22T09:22:24.565Z,95612
2018-03-22T09:24:52.647Z,95616
2018-03-22T09:27:20.748Z,95618
2018-03-22T09:29:48.914Z,95613
2018-03-22T09:32:17.152Z,95609
2018-03-22T09:34:45.321Z,95610
2018-03-22T09:37:13.485Z,95600
2018-03-22T09:39:41.570Z,95605
2018-03-22T09:42:10.311Z,95605
2018-03-22T09:44:38.404Z,95603
2018-03-22T09:47:06.595Z,95592
2018-03-22T09:49:34.829Z,95589
2018-03-22T09:52:03.009Z,95578
2018-03-22T09:54:31.117Z,95582
2018-03-22T09:56:59.276Z,95582
2018-03-22T09:59:28.081Z,95566
2018-03-22T10:01:56.189Z,95571
2018-03-22T10:04:25.074Z,95563
2018-03-22T10:06:53.199Z,95557
2018-03-22T10:09:21.931Z,95557
2018-03-22T10:11:50.076Z,95555
2018-03-22T10:14:18.245Z,95554
2018-03-22T10:16:46.387Z,95540
2018-03-22T10:19:14.545Z,95536
2018-03-22T10:21:42.690Z,95534
2018-03-22T10:24:10.751Z,95532
2018-03-22T10:26:38.903Z,95522
2018-03-22T10:29:07.045Z,95522
2018-03-22T10:31:35.174Z,95522
2018-03-22T10:34:03.304Z,95512
2018-03-22T10:36:31.408Z,95509
2018-03-22T10:39:00.291Z,95502
2018-03-22T10:41:28.410Z,95502
2018-03-22T10:43:56.538Z,95488
2018-03-22T10:46:24.620Z,95485
2018-03-22T10:48:52.778Z,95482
2018-03-22T10:51:20.968Z,95473
2018-03-22T10:53:49.114Z,95470
2018-03-22T10:56:17.258Z,95473
2018-03-22T10:58:45.760Z,95466
2018-03-22T11:01:19.286Z,95466
2018-03-22T11:03:53.572Z,95454
2018-03-22T11:06:21.691Z,95454
2018-03-22T11:08:49.802Z,95444
2018-03-22T11:11:17.937Z,95439
2018-03-22T11:13:46.012Z,95440
2018-03-22T11:16:14.895Z,95443
2018-03-22T11:18:42.979Z,95431
2018-03-22T11:21:11.839Z,95438
2018-03-22T11:23:39.994Z,95425
2018-03-22T11:26:17.001Z,95429
2018-03-22T11:28:45.165Z,95417
2018-03-22T11:31:13.381Z,95411
2018-03-22T11:33:42.241Z,95412
2018-03-22T11:36:10.347Z,95406
2018-03-22T11:38:38.468Z,95413
2018-03-22T11:41:06.575Z,95404
2018-03-22T11:43:34.728Z,95396
2018-03-22T11:46:02.909Z,95403
2018-03-22T11:48:31.170Z,95395
2018-03-22T11:50:59.391Z,95388
2018-03-22T11:53:27.615Z,95388
2018-03-22T11:55:55.777Z,95382
2018-03-22T11:58:23.880Z,95374
2018-03-22T12:00:52.050Z,95367
2018-03-22T12:03:20.160Z,95371
2018-03-22T12:05:48.278Z,95359
2018-03-22T12:08:16.390Z,95352
2018-03-22T12:10:44.510Z,95350
2018-03-22T12:13:12.640Z,95349
2018-03-22T12:15:40.758Z,95345
2018-03-22T12:18:08.864Z,95333
2018-03-22T12:20:37.044Z,95345
2018-03-22T12:23:05.146Z,95342
2018-03-22T12:25:33.296Z,95333
2018-03-22T12:28:01.421Z,95320
2018-03-22T12:30:29.521Z,95319
2018-03-22T12:32:57.618Z,95324
2018-03-22T12:35:25.734Z,95310
2018-03-22T12:37:53.840Z,95311
2018-03-22T12:40:21.983Z,95306
2018-03-22T12:42:50.084Z,95295
2018-03-22T12:45:18.173Z,95301
2018-03-22T12:47:46.322Z,95293
2018-03-22T12:50:14.425Z,95293
2018-03-22T12:52:42.587Z,95278
2018-03-22T12:55:10.695Z,95276
2018-03-22T12:57:38.810Z,95269
2018-03-22T13:00:06.974Z,95264
2018-03-22T13:02:35.038Z,95262
2018-03-22T13:05:03.140Z,95255
2018-03-22T13:07:31.241Z,95258
2018-03-22T13:10:00.179Z,95258
2018-03-22T13:12:28.285Z,95250
2018-03-22T13:14:56.416Z,95259
2018-03-22T13:17:24.529Z,95243
2018-03-22T13:19:52.657Z,95242
2018-03-22T13:22:20.772Z,95242
2018-03-22T13:24:48.886Z,95226
2018-03-22T13:27:17.289Z,95236
2018-03-22T13:29:45.408Z,95218
2018-03-22T13:32:14.002Z,95227
2018-03-22T13:34:42.868Z,95232
2018-03-22T13:37:11.016Z,95228
2018-03-22T13:39:39.140Z,95230
2018-03-22T13:42:07.304Z,95222
2018-03-22T13:44:35.456Z,95214
2018-03-22T13:47:03.551Z,95212
2018-03-22T13:49:31.677Z,95209
2018-03-22T13:51:59.792Z,95201
2018-03-22T13:54:28.874Z,95196
2018-03-22T13:56:57.005Z,95196
2018-03-22T13:59:25.117Z,95193
2018-03-22T14:01:53.267Z,95188
2018-03-22T14:04:21.983Z,95181
2018-03-22T14:06:50.195Z,95184
2018-03-22T14:09:18.299Z,95185
2018-03-22T14:11:46.615Z,95191
2018-03-22T14:14:14.833Z,95177
2018-03-22T14:16:43.057Z,95184
2018-03-22T14:19:11.253Z,95174
2018-03-22T14:21:39.525Z,95176
2018-03-22T14:24:07.868Z,95167
2018-03-22T14:26:36.059Z,95172
2018-03-22T14:29:04.949Z,95167
2018-03-22T14:31:33.101Z,95170
2018-03-22T14:34:01.222Z,95158
2018-03-22T14:36:29.349Z,95157
2018-03-22T14:38:57.450Z,95150
2018-03-22T14:41:26.516Z,95140
2018-03-22T14:43:54.757Z,95136
2018-03-22T14:46:22.928Z,95143
2018-03-22T14:48:51.038Z,95138
2018-03-22T14:51:19.213Z,95142
2018-03-22T14:53:47.320Z,95127
2018-03-22T14:56:15.410Z,95122
2018-03-22T14:58:43.556Z,95115
2018-03-22T15:01:11.668Z,95115
2018-03-22T15:03:39.805Z,95125
2018-03-22T15:06:08.678Z,95114
2018-03-22T15:08:36.834Z,95119
2018-03-22T15:11:05.628Z,95115
2018-03-22T15:13:33.802Z,95116
2018-03-22T15:16:01.965Z,95108
2018-03-22T15:18:30.092Z,95110
2018-03-22T15:20:58.205Z,95101
2018-03-22T15:23:26.292Z,95100
2018-03-22T15:25:54.423Z,95106
2018-03-22T15:28:22.579Z,95116
2018-03-22T15:30:50.632Z,95100
2018-03-22T15:33:18.738Z,95107
2018-03-22T15:35:46.893Z,95103
2018-03-22T15:38:15.001Z,95103
2018-03-22T15:40:43.101Z,95103
2018-03-22T15:43:11.829Z,95096
2018-03-22T15:45:40.691Z,95100
2018-03-22T15:48:08.809Z,95103
2018-03-22T15:50:36.947Z,95092
2018-03-22T15:53:05.054Z,95103
2018-03-22T15:55:33.161Z,95100
2018-03-22T15:58:01.288Z,95098
2018-03-22T16:00:29.747Z,95100
2018-03-22T16:02:58.600Z,95096
2018-03-22T16:05:26.706Z,95104
2018-03-22T16:07:56.414Z,95108
2018-03-22T16:10:24.523Z,95109
2018-03-22T16:12:52.784Z,95100
2018-03-22T16:15:20.870Z,95109
2018-03-22T16:17:48.986Z,95103
2018-03-22T16:20:18.280Z,95102
2018-03-22T16:22:46.597Z,95104
2018-03-22T16:25:14.750Z,95101
2018-03-22T16:27:42.889Z,95096
2018-03-22T16:30:11.016Z,95095
2018-03-22T16:32:39.176Z,95098
2018-03-22T16:35:07.536Z,95108
2018-03-22T16:37:35.716Z,95107
2018-03-22T16:40:04.561Z,95110
2018-03-22T16:42:32.686Z,95108
2018-03-22T16:45:00.867Z,95115
2018-03-22T16:47:31.725Z,95115
2018-03-22T16:49:59.853Z,95114
2018-03-22T16:52:28.011Z,95128
2018-03-22T16:54:56.109Z,95119
2018-03-22T16:57:24.234Z,95129
2018-03-22T16:59:52.337Z,95136
2018-03-22T17:02:20.458Z,95134
2018-03-22T17:04:48.599Z,95136
2018-03-22T17:07:16.705Z,95133
2018-03-22T17:09:44.920Z,95126
2018-03-22T17:12:13.196Z,95131
2018-03-22T17:14:41.301Z,95133
2018-03-22T17:17:10.158Z,95126
2018-03-22T17:19:38.373Z,95130
2018-03-22T17:22:07.650Z,95123
2018-03-22T17:24:35.810Z,95127
2018-03-22T17:27:04.093Z,95132
2018-03-22T17:29:32.260Z,95131
2018-03-22T17:32:00.500Z,95126
2018-03-22T17:34:28.746Z,95137
2018-03-22T17:36:56.950Z,95138
2018-03-22T17:39:25.934Z,95141
2018-03-22T17:41:54.109Z,95135
2018-03-22T17:44:22.257Z,95133
2018-03-22T17:46:51.133Z,95134
2018-03-22T17:49:19.295Z,95139
2018-03-22T17:51:47.471Z,95127
2018-03-22T17:54:16.487Z,95133
2018-03-22T17:56:44.722Z,95128
2018-03-22T17:59:12.928Z,95131
2018-03-22T18:01:41.201Z,95136
2018-03-22T18:04:09.394Z,95137
2018-03-22T18:06:37.497Z,95145
2018-03-22T18:09:05.628Z,95146
2018-03-22T18:11:33.778Z,95140
2018-03-22T18:14:01.948Z,95149
2018-03-22T18:16:30.100Z,95135
2018-03-22T18:18:58.524Z,95145
2018-03-22T18:21:26.675Z,95132
2018-03-22T18:23:54.985Z,95142
2018-03-22T18:26:25.093Z,95138
2018-03-22T18:28:53.348Z,95147
2018-03-22T18:31:21.520Z,95138
2018-03-22T18:33:49.663Z,95144
2018-03-22T18:36:18.269Z,95141
2018-03-22T18:38:46.457Z,95139
2018-03-22T18:41:14.792Z,95138
2018-03-22T18:43:43.050Z,95143
2018-03-22T18:46:12.753Z,95138
2018-03-22T18:48:41.150Z,95146
2018-03-22T18:51:09.404Z,95144
2018-03-22T18:53:37.911Z,95142
2018-03-22T18:56:06.797Z,95142
2018-03-22T18:58:35.232Z,95142
2018-03-22T19:01:03.559Z,95132
2018-03-22T19:03:31.996Z,95131
2018-03-22T19:06:00.197Z,95128
2018-03-22T19:08:28.480Z,95124
2018-03-22T19:11:00.733Z,95120
2018-03-22T19:13:29.320Z,95114
2018-03-22T19:15:57.563Z,95105
2018-03-22T19:18:26.670Z,95121
2018-03-22T19:20:54.950Z,95122
2018-03-22T19:23:23.199Z,95107
2018-03-22T19:25:51.529Z,95121
2018-03-22T19:28:19.870Z,95120
2018-03-22T19:30:48.127Z,95112
2018-03-22T19:33:16.253Z,95119
2018-03-22T19:35:44.570Z,95116
2018-03-22T19:38:12.885Z,95106
2018-03-22T19:40:45.946Z,95118
2018-03-22T19:43:14.123Z,95111
2018-03-22T19:45:43.255Z,95105
2018-03-22T19:48:15.994Z,95106
2018-03-22T19:50:45.541Z,95104
2018-03-22T19:53:13.872Z,95103
2018-03-22T20:08:37.963Z,95100
2018-03-22T20:11:06.290Z,95091
2018-03-22T20:13:34.468Z,95096
2018-03-22T20:16:02.808Z,95095
2018-03-22T20:18:32.066Z,95089
2018-03-22T20:21:01.378Z,95094
2018-03-22T20:23:29.854Z,95092
2018-03-22T20:25:59.594Z,95089
2018-03-22T20:28:29.008Z,95084
2018-03-22T20:31:03.072Z,95090
2018-03-22T20:33:35.320Z,95080
2018-03-22T20:36:03.980Z,95074
2018-03-22T20:38:33.963Z,95083
2018-03-22T20:41:02.186Z,95076
2018-03-22T20:43:31.731Z,95072
2018-03-22T20:46:00.740Z,95087
2018-03-22T20:48:29.428Z,95084
2018-03-22T20:50:59.500Z,95075
2018-03-22T20:53:28.708Z,95077
2018-03-22T20:55:56.929Z,95082
2018-03-22T21:11:20.638Z,95051
2018-03-22T21:13:49.174Z,95040
2018-03-22T21:16:18.605Z,95054
2018-03-22T21:18:47.538Z,95038
2018-03-22T21:21:15.758Z,95041
2018-03-22T21:23:44.108Z,95043
2018-03-22T21:26:12.407Z,95037
2018-03-22T21:28:41.838Z,95036
2018-03-22T21:31:11.259Z,95040
2018-03-22T21:33:40.340Z,95046
2018-03-22T21:36:08.762Z,95039
2018-03-22T21:38:38.104Z,95045
2018-03-22T21:41:06.546Z,95032
2018-03-22T21:43:34.915Z,95030
2018-03-22T21:46:04.147Z,95030
2018-03-22T21:48:34.082Z,95021
2018-03-22T21:51:02.355Z,95021
2018-03-22T21:53:31.158Z,95019
2018-03-22T21:56:00.121Z,95013
2018-03-22T21:58:29.360Z,95010
2018-03-22T22:00:57.969Z,95012
2018-03-22T22:03:26.499Z,95016
2018-03-22T22:05:54.597Z,95010
2018-03-22T22:08:24.078Z,95013
2018-03-22T22:10:53.329Z,95010
2018-03-22T22:13:21.450Z,95001
2018-03-22T22:15:49.599Z,95000
2018-03-22T22:18:17.707Z,94998
2018-03-22T22:20:45.845Z,94999
2018-03-22T22:39:19.768Z,94962
2018-03-22T22:41:47.893Z,94954
2018-03-22T22:44:16.118Z,94948
2018-03-22T22:46:44.322Z,94954
2018-03-22T22:49:12.686Z,94951
2018-03-22T22:51:40.863Z,94953
2018-03-22T22:54:09.050Z,94955
2018-03-22T22:56:41.371Z,94951
2018-03-22T22:59:09.432Z,94935
2018-03-22T23:01:37.594Z,94937
2018-03-22T23:04:05.768Z,94931
2018-03-22T23:06:33.920Z,94937
2018-03-22T23:09:02.065Z,94930
2018-03-22T23:11:30.189Z,94931
2018-03-22T23:13:58.537Z,94929
2018-03-22T23:16:26.656Z,94922
2018-03-22T23:18:54.806Z,94922
2018-03-22T23:21:23.053Z,94928
2018-03-22T23:23:51.186Z,94930
2018-03-22T23:26:19.329Z,94909
2018-03-22T23:28:47.544Z,94912
2018-03-22T23:31:20.799Z,94912
2018-03-22T23:33:48.983Z,94908
2018-03-22T23:36:17.111Z,94910
2018-03-22T23:38:45.669Z,94908
2018-03-22T23:41:13.806Z,94910
2018-03-22T23:43:41.954Z,94909
2018-03-22T23:46:10.197Z,94899
2018-03-22T23:48:38.405Z,94906
2018-03-22T23:51:06.563Z,94913
2018-03-22T23:53:35.225Z,94908
2018-03-22T23:56:03.333Z,94902
2018-03-22T23:58:31.459Z,94907
